Time;durP1;ratioP1;P1;durP2;ratioP2;P2;SDS_P1;SDS_P2;PMS_P1;PMS_P2;Temp;Humidity;BMP_temperature;BMP_pressure;BME280_temperature;BME280_humidity;BME280_pressure;Samples;Min_cycle;Max_cycle;Signal;HPM_P1;HPM_P2
2024/01/29 00:00:39;;;;;;;;;;;;;;;-144.99;100.00;67352.69;5052857;28;19928;-79
2024/01/29 00:03:04;;;;;;;;;;;;;;;-144.99;100.00;67352.69;5053791;28;19913;-79
2024/01/29 00:05:29;;;;;;;;;;;;;;;-144.99;100.00;67352.69;5051574;28;19913;-79
2024/01/29 00:07:54;;;;;;;;;;;;;;;-144.99;100.00;67352.69;5052252;28;19913;-79
2024/01/29 00:10:22;;;;;;;;;;;;;;;-144.99;100.00;67352.69;5053682;28;20440;-79
2024/01/29 00:12:47;;;;;;;;;;;;;;;-144.99;100.00;67352.69;5052028;28;20014;-79
2024/01/29 00:15:12;;;;;;;;;;;;;;;-144.99;100.00;67352.69;5049705;28;20011;-79
2024/01/29 00:17:37;;;;;;;;;;;;;;;-144.99;100.00;67352.69;5052134;28;19913;-79
2024/01/29 00:20:03;;;;;;;;;;;;;;;-144.99;100.00;67352.69;5051939;28;19966;-79
2024/01/29 00:22:28;;;;;;;;;;;;;;;-144.99;100.00;67352.69;5052307;28;19913;-79
2024/01/29 00:24:53;;;;;;;;;;;;;;;-144.99;100.00;67352.69;5050155;28;20365;-79
2024/01/29 00:27:19;;;;;;;;;;;;;;;-144.99;100.00;67352.69;5050959;28;19912;-79
2024/01/29 00:29:44;;;;;;;;;;;;;;;-144.99;100.00;67352.69;5050489;28;19928;-79
2024/01/29 00:32:09;;;;;;;;;;;;;;;-144.99;100.00;67352.69;5052424;28;20395;-79
2024/01/29 00:34:34;;;;;;;;;;;;;;;-144.99;100.00;67352.69;5050062;28;19920;-79
2024/01/29 00:37:00;;;;;;;;;;;;;;;-144.99;100.00;67352.69;5052276;28;19921;-79
2024/01/29 00:39:25;;;;;;;;;;;;;;;-144.99;100.00;67352.69;5052268;28;19936;-79
2024/01/29 00:41:51;;;;;;;;;;;;;;;-144.99;100.00;67352.69;5050960;28;19959;-79
2024/01/29 00:44:17;;;;;;;;;;;;;;;-144.99;100.00;67352.69;5049312;28;19917;-79
2024/01/29 00:46:42;;;;;;;;;;;;;;;-144.99;100.00;67352.69;5051375;28;20003;-79
2024/01/29 00:49:08;;;;;;;;;;;;;;;-144.99;100.00;67352.69;5050936;28;20019;-79
2024/01/29 00:51:33;;;;;;;;;;;;;;;-144.99;100.00;67352.69;5050800;28;19913;-79
2024/01/29 00:53:58;;;;;;;;;;;;;;;-144.99;100.00;67352.69;5051550;28;19913;-80
2024/01/29 00:56:23;;;;;;;;;;;;;;;-144.99;100.00;67352.69;5051278;28;19920;-79
2024/01/29 00:58:48;;;;;;;;;;;;;;;-144.99;100.00;67352.69;5052322;28;19974;-79
2024/01/29 01:01:14;;;;;;;;;;;;;;;-144.99;100.00;67352.69;5051115;28;20348;-79
2024/01/29 01:03:39;;;;;;;;;;;;;;;-144.99;100.00;67352.69;5052738;28;20322;-79
2024/01/29 01:06:04;;;;;;;;;;;;;;;-144.99;100.00;67352.69;5051354;28;20445;-79
2024/01/29 01:08:29;;;;;;;;;;;;;;;-144.99;100.00;67352.69;5052867;28;20236;-79
2024/01/29 01:10:54;;;;;;;;;;;;;;;-144.99;100.00;67352.69;5056165;28;20410;-79
2024/01/29 01:13:20;;;;;;;;;;;;;;;-144.99;100.00;67352.69;5057042;28;19912;-79
2024/01/29 01:15:45;;;;;;;;;;;;;;;-144.99;100.00;67352.69;5055785;28;19917;-79
2024/01/29 01:18:10;;;;;;;;;;;;;;;-144.99;100.00;67352.69;5055339;28;19913;-79
2024/01/29 01:20:35;;;;;;;;;;;;;;;-144.99;100.00;67352.69;5056637;28;19920;-79
2024/01/29 01:23:01;;;;;;;;;;;;;;;-144.99;100.00;67352.69;5055382;28;20357;-79
2024/01/29 01:25:27;;;;;;;;;;;;;;;-144.99;100.00;67352.69;5054128;28;19917;-79
2024/01/29 01:27:53;;;;;;;;;;;;;;;-144.99;100.00;67352.69;5056184;28;20280;-79
2024/01/29 01:30:20;;;;;;;;;;;;;;;-144.99;100.00;67352.69;5056280;28;19917;-79
2024/01/29 01:32:45;;;;;;;;;;;;;;;-144.99;100.00;67352.69;5056304;28;19948;-79
2024/01/29 01:35:10;;;;;;;;;;;;;;;-144.99;100.00;67352.69;5053839;28;19994;-79
2024/01/29 01:37:36;;;;;;;;;;;;;;;-144.99;100.00;67352.69;5056430;28;19913;-79
2024/01/29 01:40:01;;;;;;;;;;;;;;;-144.99;100.00;67352.69;5056478;28;19939;-79
2024/01/29 01:42:26;;;;;;;;;;;;;;;-144.99;100.00;67352.69;5056301;28;19967;-79
2024/01/29 01:44:52;;;;;;;;;;;;;;;-144.99;100.00;67352.69;5055258;28;20429;-79
2024/01/29 01:47:19;;;;;;;;;;;;;;;-144.99;100.00;67352.69;5056546;28;20008;-79
2024/01/29 01:49:44;;;;;;;;;;;;;;;-144.99;100.00;67352.69;5054891;28;20405;-79
2024/01/29 01:52:10;;;;;;;;;;;;;;;-144.99;100.00;67352.69;5056064;28;20003;-79
2024/01/29 01:54:36;;;;;;;;;;;;;;;-144.99;100.00;67352.69;5055346;28;19952;-79
2024/01/29 01:57:02;;;;;;;;;;;;;;;-144.99;100.00;67352.69;5055452;28;20582;-80
2024/01/29 01:59:29;;;;;;;;;;;;;;;-144.99;100.00;67352.69;5055815;28;19912;-79
2024/01/29 02:01:55;;;;;;;;;;;;;;;-144.99;100.00;67352.69;5055998;28;19940;-79
2024/01/29 02:04:20;;;;;;;;;;;;;;;-144.99;100.00;67352.69;5055501;28;19913;-80
2024/01/29 02:06:46;;;;;;;;;;;;;;;-144.99;100.00;67352.69;5056655;28;19912;-80
2024/01/29 02:09:12;;;;;;;;;;;;;;;-144.99;100.00;67352.69;5055395;28;20371;-79
2024/01/29 02:11:37;;;;;;;;;;;;;;;-144.99;100.00;67352.69;5055005;28;19916;-79
2024/01/29 02:14:02;;;;;;;;;;;;;;;-144.99;100.00;67352.69;5054373;28;19942;-80
2024/01/29 02:16:27;;;;;;;;;;;;;;;-144.99;100.00;67352.69;5055482;28;19959;-80
2024/01/29 02:18:52;;;;;;;;;;;;;;;-144.99;100.00;67352.69;5055393;28;20388;-80
2024/01/29 02:21:18;;;;;;;;;;;;;;;-144.99;100.00;67352.69;5055691;28;19913;-79
2024/01/29 02:23:46;;;;;;;;;;;;;;;-144.99;100.00;67352.69;5055078;28;20174;-79
2024/01/29 02:26:12;;;;;;;;;;;;;;;-144.99;100.00;67352.69;5056600;28;19916;-79
2024/01/29 02:28:37;;;;;;;;;;;;;;;-144.99;100.00;67352.69;5056123;28;19928;-80
2024/01/29 02:31:03;;;;;;;;;;;;;;;-144.99;100.00;67352.69;5056198;28;19913;-80
2024/01/29 02:33:29;;;;;;;;;;;;;;;-144.99;100.00;67352.69;5056644;28;20290;-79
2024/01/29 02:35:55;;;;;;;;;;;;;;;-144.99;100.00;67352.69;5055351;28;19916;-80
2024/01/29 02:38:20;;;;;;;;;;;;;;;-144.99;100.00;67352.69;5056912;28;19919;-80
2024/01/29 02:40:46;;;;;;;;;;;;;;;-144.99;100.00;67352.69;5055002;28;19913;-80
2024/01/29 02:43:11;;;;;;;;;;;;;;;-144.99;100.00;67352.69;5055557;28;20375;-79
2024/01/29 02:45:36;;;;;;;;;;;;;;;-144.99;100.00;67352.69;5054977;28;19978;-79
2024/01/29 02:48:01;;;;;;;;;;;;;;;-144.99;100.00;67352.69;5056087;28;19924;-79
2024/01/29 02:50:26;;;;;;;;;;;;;;;-144.99;100.00;67352.69;5054604;28;19935;-80
2024/01/29 02:52:52;;;;;;;;;;;;;;;-144.99;100.00;67352.69;5055756;28;19913;-79
2024/01/29 02:55:17;;;;;;;;;;;;;;;-144.99;100.00;67352.69;5054902;28;19917;-79
2024/01/29 02:57:42;;;;;;;;;;;;;;;-144.99;100.00;67352.69;5055032;28;20334;-79
2024/01/29 03:00:08;;;;;;;;;;;;;;;-144.99;100.00;67352.69;5053520;28;20287;-79
2024/01/29 03:02:33;;;;;;;;;;;;;;;-144.99;100.00;67352.69;5054950;28;20011;-79
2024/01/29 03:04:58;;;;;;;;;;;;;;;-144.99;100.00;67352.69;5054107;28;19934;-79
2024/01/29 03:07:23;;;;;;;;;;;;;;;-144.99;100.00;67352.69;5054445;28;19913;-79
2024/01/29 03:09:48;;;;;;;;;;;;;;;-144.99;100.00;67352.69;5054108;28;20398;-79
2024/01/29 03:12:14;;;;;;;;;;;;;;;-144.99;100.00;67352.69;5052545;28;20402;-79
2024/01/29 03:14:39;;;;;;;;;;;;;;;-144.99;100.00;67352.69;5054128;28;19975;-79
2024/01/29 03:17:04;;;;;;;;;;;;;;;-144.99;100.00;67352.69;5054314;28;19920;-80
2024/01/29 03:19:30;;;;;;;;;;;;;;;-144.99;100.00;67352.69;5055418;28;20007;-79
2024/01/29 03:21:55;;;;;;;;;;;;;;;-144.99;100.00;67352.69;5053522;28;19913;-79
2024/01/29 03:24:20;;;;;;;;;;;;;;;-144.99;100.00;67352.69;5051489;28;19913;-79
2024/01/29 03:26:45;;;;;;;;;;;;;;;-144.99;100.00;67352.69;5053196;28;20346;-79
2024/01/29 03:29:10;;;;;;;;;;;;;;;-144.99;100.00;67352.69;5051744;28;20375;-79
2024/01/29 03:31:36;;;;;;;;;;;;;;;-144.99;100.00;67352.69;5053019;28;20445;-79
2024/01/29 03:34:01;;;;;;;;;;;;;;;-144.99;100.00;67352.69;5053751;28;19967;-79
2024/01/29 03:36:26;;;;;;;;;;;;;;;-144.99;100.00;67352.69;5053472;28;20438;-80
2024/01/29 03:38:51;;;;;;;;;;;;;;;-144.99;100.00;67352.69;5052909;28;19917;-79
2024/01/29 03:41:16;;;;;;;;;;;;;;;-144.99;100.00;67352.69;5052528;28;19919;-79
2024/01/29 03:43:42;;;;;;;;;;;;;;;-144.99;100.00;67352.69;5051158;28;20432;-79
2024/01/29 03:46:07;;;;;;;;;;;;;;;-144.99;100.00;67352.69;5051487;28;20355;-79
2024/01/29 03:48:32;;;;;;;;;;;;;;;-144.99;100.00;67352.69;5052831;28;19916;-80
2024/01/29 03:50:57;;;;;;;;;;;;;;;-144.99;100.00;67352.69;5052440;28;19913;-79
2024/01/29 03:53:22;;;;;;;;;;;;;;;-144.99;100.00;67352.69;5052018;28;19913;-79
2024/01/29 03:55:48;;;;;;;;;;;;;;;-144.99;100.00;67352.69;5051075;28;19917;-79
2024/01/29 03:58:13;;;;;;;;;;;;;;;-144.99;100.00;67352.69;5052047;28;19912;-79
2024/01/29 04:00:39;;;;;;;;;;;;;;;-144.99;100.00;67352.69;5051830;28;20395;-79
2024/01/29 04:03:04;;;;;;;;;;;;;;;-144.99;100.00;67352.69;5051816;28;19956;-79
2024/01/29 04:05:29;;;;;;;;;;;;;;;-144.99;100.00;67352.69;5050913;28;19952;-79
2024/01/29 04:07:54;;;;;;;;;;;;;;;-144.99;100.00;67352.69;5051938;28;19919;-79
2024/01/29 04:10:20;;;;;;;;;;;;;;;-144.99;100.00;67352.69;5051800;28;20291;-79
2024/01/29 04:12:46;;;;;;;;;;;;;;;-144.99;100.00;67352.69;5050270;28;20291;-79
2024/01/29 04:15:11;;;;;;;;;;;;;;;-144.99;100.00;67352.69;5049608;28;19919;-79
2024/01/29 04:17:36;;;;;;;;;;;;;;;-144.99;100.00;67352.69;5052011;28;19955;-79
2024/01/29 04:20:05;;;;;;;;;;;;;;;-144.99;100.00;67352.69;5051577;28;19962;-79
2024/01/29 04:22:32;;;;;;;;;;;;;;;-144.99;100.00;67352.69;5051764;28;19964;-79
2024/01/29 04:24:57;;;;;;;;;;;;;;;-144.99;100.00;67352.69;5050848;28;19913;-79
2024/01/29 04:27:23;;;;;;;;;;;;;;;-144.99;100.00;67352.69;5051697;28;19919;-79
2024/01/29 04:29:48;;;;;;;;;;;;;;;-144.99;100.00;67352.69;5050262;28;19959;-79
2024/01/29 04:32:13;;;;;;;;;;;;;;;-144.99;100.00;67352.69;5050471;28;19913;-79
2024/01/29 04:34:38;;;;;;;;;;;;;;;-144.99;100.00;67352.69;5050785;28;19921;-79
2024/01/29 04:37:03;;;;;;;;;;;;;;;-144.99;100.00;67352.69;5051703;28;19913;-79
2024/01/29 04:39:29;;;;;;;;;;;;;;;-144.99;100.00;67352.69;5050293;28;20063;-78
2024/01/29 04:41:54;;;;;;;;;;;;;;;-144.99;100.00;67352.69;5050091;28;19923;-79
2024/01/29 04:44:19;;;;;;;;;;;;;;;-144.99;100.00;67352.69;5053678;28;19916;-79
2024/01/29 04:46:44;;;;;;;;;;;;;;;-144.99;100.00;67352.69;5055694;28;19912;-79
2024/01/29 04:49:09;;;;;;;;;;;;;;;-144.99;100.00;67352.69;5055625;28;19920;-79
2024/01/29 04:51:35;;;;;;;;;;;;;;;-144.99;100.00;67352.69;5055932;28;19936;-79
2024/01/29 04:54:00;;;;;;;;;;;;;;;-144.99;100.00;67352.69;5054786;28;20318;-79
2024/01/29 04:56:25;;;;;;;;;;;;;;;-144.99;100.00;67352.69;5053821;28;19912;-79
2024/01/29 04:58:51;;;;;;;;;;;;;;;-144.99;100.00;67352.69;5055759;28;19917;-78
2024/01/29 05:01:16;;;;;;;;;;;;;;;-144.99;100.00;67352.69;5054268;28;19913;-79
2024/01/29 05:03:41;;;;;;;;;;;;;;;-144.99;100.00;67352.69;5055969;28;19916;-79
2024/01/29 05:06:06;;;;;;;;;;;;;;;-144.99;100.00;67352.69;5054738;28;19913;-79
2024/01/29 05:08:32;;;;;;;;;;;;;;;-144.99;100.00;67352.69;5055858;28;20390;-79
2024/01/29 05:10:57;;;;;;;;;;;;;;;-144.99;100.00;67352.69;5055366;28;19912;-79
2024/01/29 05:13:22;;;;;;;;;;;;;;;-144.99;100.00;67352.69;5055615;28;20307;-79
2024/01/29 05:15:47;;;;;;;;;;;;;;;-144.99;100.00;67352.69;5054965;28;19924;-79
2024/01/29 05:18:13;;;;;;;;;;;;;;;-144.99;100.00;67352.69;5055979;28;19912;-79
2024/01/29 05:20:38;;;;;;;;;;;;;;;-144.99;100.00;67352.69;5054398;28;19912;-79
2024/01/29 05:23:03;;;;;;;;;;;;;;;-144.99;100.00;67352.69;5054344;28;19920;-79
2024/01/29 05:25:28;;;;;;;;;;;;;;;-144.99;100.00;67352.69;5054829;28;19913;-79
2024/01/29 05:27:53;;;;;;;;;;;;;;;-144.99;100.00;67352.69;5055838;28;19949;-79
2024/01/29 05:30:19;;;;;;;;;;;;;;;-144.99;100.00;67352.69;5055658;28;19975;-79
2024/01/29 05:32:44;;;;;;;;;;;;;;;-144.99;100.00;67352.69;5054216;28;19913;-79
2024/01/29 05:35:10;;;;;;;;;;;;;;;-144.99;100.00;67352.69;5054903;28;20012;-79
2024/01/29 05:37:35;;;;;;;;;;;;;;;-144.99;100.00;67352.69;5055880;28;19912;-79
2024/01/29 05:40:00;;;;;;;;;;;;;;;-144.99;100.00;67352.69;5055353;28;19983;-79
2024/01/29 05:42:26;;;;;;;;;;;;;;;-144.99;100.00;67352.69;5054958;28;19920;-79
2024/01/29 05:44:51;;;;;;;;;;;;;;;-144.99;100.00;67352.69;5054113;28;19923;-79
2024/01/29 05:47:16;;;;;;;;;;;;;;;-144.99;100.00;67352.69;5054133;28;19913;-79
2024/01/29 05:49:42;;;;;;;;;;;;;;;-144.99;100.00;67352.69;5053974;28;19920;-79
2024/01/29 05:52:07;;;;;;;;;;;;;;;-144.99;100.00;67352.69;5053846;28;19912;-79
2024/01/29 05:54:32;;;;;;;;;;;;;;;-144.99;100.00;67352.69;5051726;28;20375;-79
2024/01/29 05:56:57;;;;;;;;;;;;;;;-144.99;100.00;67352.69;5055302;28;19920;-79
2024/01/29 05:59:22;;;;;;;;;;;;;;;-144.99;100.00;67352.69;5054719;28;19917;-81
2024/01/29 06:01:48;;;;;;;;;;;;;;;-144.99;100.00;67352.69;5053897;28;19912;-80
2024/01/29 06:04:13;;;;;;;;;;;;;;;-144.99;100.00;67352.69;5053302;28;20383;-81
2024/01/29 06:06:38;;;;;;;;;;;;;;;-144.99;100.00;67352.69;5054890;28;20376;-79
2024/01/29 06:09:06;;;;;;;;;;;;;;;-144.99;100.00;67352.69;5055145;28;19916;-79
2024/01/29 06:11:31;;;;;;;;;;;;;;;-144.99;100.00;67352.69;5054804;28;20273;-80
2024/01/29 06:13:57;;;;;;;;;;;;;;;-144.99;100.00;67352.69;5052991;28;19920;-79
2024/01/29 06:16:22;;;;;;;;;;;;;;;-144.99;100.00;67352.69;5053531;28;19916;-79
2024/01/29 06:18:48;;;;;;;;;;;;;;;-144.99;100.00;67352.69;5053967;28;19913;-79
2024/01/29 06:21:13;;;;;;;;;;;;;;;-144.99;100.00;67352.69;5054024;28;19923;-79
2024/01/29 06:23:38;;;;;;;;;;;;;;;-144.99;100.00;67352.69;5053892;28;19913;-79
2024/01/29 06:26:04;;;;;;;;;;;;;;;-144.99;100.00;67352.69;5052582;28;19982;-80
2024/01/29 06:28:29;;;;;;;;;;;;;;;-144.99;100.00;67352.69;5054194;28;19968;-79
2024/01/29 06:30:54;;;;;;;;;;;;;;;-144.99;100.00;67352.69;5054125;28;20379;-79
2024/01/29 06:33:20;;;;;;;;;;;;;;;-144.99;100.00;67352.69;5053096;28;19913;-79
2024/01/29 06:35:45;;;;;;;;;;;;;;;-144.99;100.00;67352.69;5052020;28;19963;-79
2024/01/29 06:38:10;;;;;;;;;;;;;;;-144.99;100.00;67352.69;5053214;28;20305;-79
2024/01/29 06:40:35;;;;;;;;;;;;;;;-144.99;100.00;67352.69;5053527;28;19962;-79
2024/01/29 06:43:00;;;;;;;;;;;;;;;-144.99;100.00;67352.69;5052834;28;19916;-80
2024/01/29 06:45:26;;;;;;;;;;;;;;;-144.99;100.00;67352.69;5053790;28;19920;-79
2024/01/29 06:47:51;;;;;;;;;;;;;;;-144.99;100.00;67352.69;5053262;28;19917;-79
2024/01/29 06:50:16;;;;;;;;;;;;;;;-144.99;100.00;67352.69;5052983;28;19956;-79
2024/01/29 06:52:41;;;;;;;;;;;;;;;-144.99;100.00;67352.69;5054137;28;19923;-79
2024/01/29 06:55:07;;;;;;;;;;;;;;;-144.99;100.00;67352.69;5051951;28;20393;-79
2024/01/29 06:57:32;;;;;;;;;;;;;;;-144.99;100.00;67352.69;5052651;28;19956;-81
2024/01/29 06:59:57;;;;;;;;;;;;;;;-144.99;100.00;67352.69;5053583;28;19913;-79
2024/01/29 07:02:22;;;;;;;;;;;;;;;-144.99;100.00;67352.69;5046161;28;19924;-79
2024/01/29 07:04:48;;;;;;;;;;;;;;;-144.99;100.00;67352.69;5050323;28;20342;-79
2024/01/29 07:07:13;;;;;;;;;;;;;;;-144.99;100.00;67352.69;5051934;28;19917;-79
2024/01/29 07:09:38;;;;;;;;;;;;;;;-144.99;100.00;67352.69;5053950;28;19916;-79
2024/01/29 07:12:06;;;;;;;;;;;;;;;-144.99;100.00;67352.69;5052083;28;20317;-79
2024/01/29 07:14:31;;;;;;;;;;;;;;;-144.99;100.00;67352.69;5050675;28;19964;-79
2024/01/29 07:16:56;;;;;;;;;;;;;;;-144.99;100.00;67352.69;5052821;28;20303;-78
2024/01/29 07:19:25;;;;;;;;;;;;;;;-144.99;100.00;67352.69;5051350;28;19917;-78
2024/01/29 07:21:50;;;;;;;;;;;;;;;-144.99;100.00;67352.69;5050757;28;20009;-78
2024/01/29 07:24:16;;;;;;;;;;;;;;;-144.99;100.00;67352.69;5051768;28;19985;-78
2024/01/29 07:26:41;;;;;;;;;;;;;;;-144.99;100.00;67352.69;5051376;28;19920;-79
2024/01/29 07:29:06;;;;;;;;;;;;;;;-144.99;100.00;67352.69;5051327;28;20295;-79
2024/01/29 07:31:31;;;;;;;;;;;;;;;-144.99;100.00;67352.69;5052632;28;19923;-78
2024/01/29 07:33:57;;;;;;;;;;;;;;;-144.99;100.00;67352.69;5051687;28;19956;-78
2024/01/29 07:36:23;;;;;;;;;;;;;;;-144.99;100.00;67352.69;5051319;28;19916;-79
2024/01/29 07:38:48;;;;;;;;;;;;;;;-144.99;100.00;67352.69;5052540;28;19919;-79
2024/01/29 07:41:13;;;;;;;;;;;;;;;-144.99;100.00;67352.69;5052233;28;20079;-79
2024/01/29 07:43:38;;;;;;;;;;;;;;;-144.99;100.00;67352.69;5051588;28;19912;-79
2024/01/29 07:46:04;;;;;;;;;;;;;;;-144.99;100.00;67352.69;5050208;28;19920;-79
2024/01/29 07:48:29;;;;;;;;;;;;;;;-144.99;100.00;67352.69;5051293;28;19917;-79
2024/01/29 07:50:54;;;;;;;;;;;;;;;-144.99;100.00;67352.69;5052329;28;19916;-79
2024/01/29 07:53:19;;;;;;;;;;;;;;;-144.99;100.00;67352.69;5052702;28;19913;-79
2024/01/29 07:55:44;;;;;;;;;;;;;;;-144.99;100.00;67352.69;5051633;28;20008;-79
2024/01/29 07:58:10;;;;;;;;;;;;;;;-144.99;100.00;67352.69;5051772;28;20280;-79
2024/01/29 08:00:35;;;;;;;;;;;;;;;-144.99;100.00;67352.69;5052361;28;20302;-79
2024/01/29 08:03:00;;;;;;;;;;;;;;;-144.99;100.00;67352.69;5052493;28;19925;-79
2024/01/29 08:05:25;;;;;;;;;;;;;;;-144.99;100.00;67352.69;5051150;28;19912;-79
2024/01/29 08:07:51;;;;;;;;;;;;;;;-144.99;100.00;67352.69;5052604;28;19963;-82
2024/01/29 08:10:16;;;;;;;;;;;;;;;-144.99;100.00;67352.69;5051704;28;19916;-82
2024/01/29 08:12:41;;;;;;;;;;;;;;;-144.99;100.00;67352.69;5052306;28;20018;-79
2024/01/29 08:15:06;;;;;;;;;;;;;;;-144.99;100.00;67352.69;5051048;28;19913;-79
2024/01/29 08:17:32;;;;;;;;;;;;;;;-144.99;100.00;67352.69;5051804;28;19917;-80
2024/01/29 08:19:57;;;;;;;;;;;;;;;-144.99;100.00;67352.69;5052119;28;20290;-79
2024/01/29 08:22:22;;;;;;;;;;;;;;;-144.99;100.00;67352.69;5051265;28;19913;-81
2024/01/29 08:24:48;;;;;;;;;;;;;;;-144.99;100.00;67352.69;5051562;28;20290;-81
2024/01/29 08:27:13;;;;;;;;;;;;;;;-144.99;100.00;67352.69;5051002;28;19917;-79
2024/01/29 08:29:38;;;;;;;;;;;;;;;-144.99;100.00;67352.69;5052141;28;20337;-79
2024/01/29 08:32:04;;;;;;;;;;;;;;;-144.99;100.00;67352.69;5050878;28;20292;-79
2024/01/29 08:34:29;;;;;;;;;;;;;;;-144.99;100.00;67352.69;5050088;28;19917;-79
2024/01/29 08:36:55;;;;;;;;;;;;;;;-144.99;100.00;67352.69;5053776;28;19956;-79
2024/01/29 08:39:20;;;;;;;;;;;;;;;-144.99;100.00;67352.69;5054872;28;19917;-78
2024/01/29 08:41:45;;;;;;;;;;;;;;;-144.99;100.00;67352.69;5055529;28;19920;-78
2024/01/29 08:44:11;;;;;;;;;;;;;;;-144.99;100.00;67352.69;5054694;28;19913;-79
2024/01/29 08:46:36;;;;;;;;;;;;;;;-144.99;100.00;67352.69;5055384;28;20298;-78
2024/01/29 08:49:01;;;;;;;;;;;;;;;-144.99;100.00;67352.69;5055187;28;19920;-78
2024/01/29 08:51:26;;;;;;;;;;;;;;;-144.99;100.00;67352.69;5055121;28;19913;-78
2024/01/29 08:53:51;;;;;;;;;;;;;;;-144.99;100.00;67352.69;5055767;28;19916;-78
2024/01/29 08:56:17;;;;;;;;;;;;;;;-144.99;100.00;67352.69;5047534;28;20334;-79
2024/01/29 08:58:42;;;;;;;;;;;;;;;-144.99;100.00;67352.69;5052944;28;20410;-79
2024/01/29 09:01:08;;;;;;;;;;;;;;;-144.99;100.00;67352.69;5054407;28;19912;-78
2024/01/29 09:03:33;;;;;;;;;;;;;;;-144.99;100.00;67352.69;5054269;28;19920;-78
2024/01/29 09:05:58;;;;;;;;;;;;;;;-144.99;100.00;67352.69;5053484;28;20418;-79
2024/01/29 09:08:23;;;;;;;;;;;;;;;-144.99;100.00;67352.69;5054876;28;20437;-78
2024/01/29 09:10:48;;;;;;;;;;;;;;;-144.99;100.00;67352.69;5052925;28;20007;-78
2024/01/29 09:13:14;;;;;;;;;;;;;;;-144.99;100.00;67352.69;5053443;28;19913;-77
2024/01/29 09:15:39;;;;;;;;;;;;;;;-144.99;100.00;67352.69;5052728;28;19919;-78
2024/01/29 09:18:04;;;;;;;;;;;;;;;-144.99;100.00;67352.69;5052609;28;19935;-78
2024/01/29 09:20:29;;;;;;;;;;;;;;;-144.99;100.00;67352.69;5054284;28;19912;-78
2024/01/29 09:22:55;;;;;;;;;;;;;;;-144.99;100.00;67352.69;5054024;28;19912;-78
2024/01/29 09:25:20;;;;;;;;;;;;;;;-144.99;100.00;67352.69;5051075;28;19952;-78
2024/01/29 09:27:45;;;;;;;;;;;;;;;-144.99;100.00;67352.69;5052939;28;20007;-78
2024/01/29 09:30:11;;;;;;;;;;;;;;;-144.99;100.00;67352.69;5057303;28;20012;-78
2024/01/29 09:32:36;;;;;;;;;;;;;;;-144.99;100.00;67352.69;5058348;28;19966;-78
2024/01/29 09:35:01;;;;;;;;;;;;;;;-144.99;100.00;67352.69;5055916;28;19917;-78
2024/01/29 09:37:26;;;;;;;;;;;;;;;-144.99;100.00;67352.69;5057739;28;20051;-78
2024/01/29 09:39:53;;;;;;;;;;;;;;;-144.99;100.00;67352.69;5055320;28;20011;-78
2024/01/29 09:42:19;;;;;;;;;;;;;;;-144.99;100.00;67352.69;5056459;28;19917;-78
2024/01/29 09:44:45;;;;;;;;;;;;;;;-144.99;100.00;67352.69;5056035;28;19919;-78
2024/01/29 09:47:10;;;;;;;;;;;;;;;-144.99;100.00;67352.69;5056082;28;19920;-77
2024/01/29 09:49:37;;;;;;;;;;;;;;;-144.99;100.00;67352.69;5056494;28;19916;-78
2024/01/29 09:52:06;;;;;;;;;;;;;;;-144.99;100.00;67352.69;5056166;28;19925;-78
2024/01/29 09:54:33;;;;;;;;;;;;;;;-144.99;100.00;67352.69;5055325;28;20319;-78
2024/01/29 09:56:58;;;;;;;;;;;;;;;-144.99;100.00;67352.69;5055786;28;19959;-78
2024/01/29 09:59:23;;;;;;;;;;;;;;;-144.99;100.00;67352.69;5057255;28;20306;-78
2024/01/29 10:01:49;;;;;;;;;;;;;;;-144.99;100.00;67352.69;5055507;28;20376;-78
2024/01/29 10:04:14;;;;;;;;;;;;;;;-144.99;100.00;67352.69;5054557;28;19912;-78
2024/01/29 10:06:39;;;;;;;;;;;;;;;-144.99;100.00;67352.69;5055244;28;19912;-78
2024/01/29 10:09:05;;;;;;;;;;;;;;;-144.99;100.00;67352.69;5055363;28;20388;-77
2024/01/29 10:11:30;;;;;;;;;;;;;;;-144.99;100.00;67352.69;5056946;28;19913;-77
2024/01/29 10:13:58;;;;;;;;;;;;;;;-144.99;100.00;67352.69;5056757;28;19966;-77
2024/01/29 10:16:25;;;;;;;;;;;;;;;-144.99;100.00;67352.69;5056155;28;19913;-78
2024/01/29 10:18:56;;;;;;;;;;;;;;;-144.99;100.00;67352.69;5056259;28;19912;-78
2024/01/29 10:21:22;;;;;;;;;;;;;;;-144.99;100.00;67352.69;5054799;28;19919;-78
2024/01/29 10:23:56;;;;;;;;;;;;;;;-144.99;100.00;67352.69;5055891;28;20356;-77
2024/01/29 10:26:22;;;;;;;;;;;;;;;-144.99;100.00;67352.69;5055891;28;19912;-78
2024/01/29 10:28:47;;;;;;;;;;;;;;;-144.99;100.00;67352.69;5056167;28;19920;-78
2024/01/29 10:31:12;;;;;;;;;;;;;;;-144.99;100.00;67352.69;5057337;28;19917;-78
2024/01/29 10:33:37;;;;;;;;;;;;;;;-144.99;100.00;67352.69;5057594;28;19913;-78
2024/01/29 10:36:03;;;;;;;;;;;;;;;-144.99;100.00;67352.69;5055925;28;19920;-78
2024/01/29 10:38:32;;;;;;;;;;;;;;;-144.99;100.00;67352.69;5056042;28;19983;-79
2024/01/29 10:40:58;;;;;;;;;;;;;;;-144.99;100.00;67352.69;5053848;28;19913;-77
2024/01/29 10:43:30;;;;;;;;;;;;;;;-144.99;100.00;67352.69;5053576;28;19919;-77
2024/01/29 10:45:57;;;;;;;;;;;;;;;-144.99;100.00;67352.69;5054376;28;19912;-78
2024/01/29 10:48:22;;;;;;;;;;;;;;;-144.99;100.00;67352.69;5057644;28;19913;-78
2024/01/29 10:50:48;;;;;;;;;;;;;;;-144.99;100.00;67352.69;5057232;28;19924;-79
2024/01/29 10:53:17;;;;;;;;;;;;;;;-144.99;100.00;67352.69;5058365;28;19920;-78
2024/01/29 10:55:49;;;;;;;;;;;;;;;-144.99;100.00;67352.69;5056926;28;19948;-78
2024/01/29 10:58:14;;;;;;;;;;;;;;;-144.99;100.00;67352.69;5058115;28;19993;-78
2024/01/29 11:00:41;;;;;;;;;;;;;;;-144.99;100.00;67352.69;5057332;28;20330;-78
2024/01/29 11:03:08;;;;;;;;;;;;;;;-144.99;100.00;67352.69;5057128;28;19912;-78
2024/01/29 11:05:34;;;;;;;;;;;;;;;-144.99;100.00;67352.69;5054530;28;19912;-78
2024/01/29 11:08:01;;;;;;;;;;;;;;;-144.99;100.00;67352.69;5058044;28;19913;-79
2024/01/29 11:10:27;;;;;;;;;;;;;;;-144.99;100.00;67352.69;5056080;28;20359;-79
2024/01/29 11:12:54;;;;;;;;;;;;;;;-144.99;100.00;67352.69;5056951;28;19917;-79
2024/01/29 11:15:20;;;;;;;;;;;;;;;-144.99;100.00;67352.69;5055124;28;19920;-78
2024/01/29 11:17:45;;;;;;;;;;;;;;;-144.99;100.00;67352.69;5053366;28;19912;-78
2024/01/29 11:20:12;;;;;;;;;;;;;;;-144.99;100.00;67352.69;5053816;28;19935;-78
2024/01/29 11:22:37;;;;;;;;;;;;;;;-144.99;100.00;67352.69;5053556;28;19935;-78
2024/01/29 11:25:14;;;;;;;;;;;;;;;-144.99;100.00;67352.69;5051041;28;20383;-78
2024/01/29 11:27:40;;;;;;;;;;;;;;;-144.99;100.00;67352.69;5053323;28;19917;-77
2024/01/29 11:30:12;;;;;;;;;;;;;;;-144.99;100.00;67352.69;5053212;28;19917;-78
2024/01/29 11:32:40;;;;;;;;;;;;;;;-144.99;100.00;67352.69;5051818;28;20006;-78
2024/01/29 11:35:12;;;;;;;;;;;;;;;-144.99;100.00;67352.69;5051236;28;19912;-78
2024/01/29 11:37:38;;;;;;;;;;;;;;;-144.99;100.00;67352.69;5052188;28;19913;-78
2024/01/29 11:40:04;;;;;;;;;;;;;;;-144.99;100.00;67352.69;5051689;28;19920;-78
2024/01/29 11:42:29;;;;;;;;;;;;;;;-144.99;100.00;67352.69;5052018;28;19919;-77
2024/01/29 11:44:55;;;;;;;;;;;;;;;-144.99;100.00;67352.69;5052043;28;20379;-77
2024/01/29 11:47:22;;;;;;;;;;;;;;;-144.99;100.00;67352.69;5051976;28;19959;-78
2024/01/29 11:49:48;;;;;;;;;;;;;;;-144.99;100.00;67352.69;5052691;28;20007;-78
2024/01/29 11:52:13;;;;;;;;;;;;;;;-144.99;100.00;67352.69;5052497;28;19959;-78
2024/01/29 11:54:38;;;;;;;;;;;;;;;-144.99;100.00;67352.69;5050732;28;19960;-78
2024/01/29 11:57:03;;;;;;;;;;;;;;;-144.99;100.00;67352.69;5052069;28;20463;-77
2024/01/29 11:59:29;;;;;;;;;;;;;;;-144.99;100.00;67352.69;5051692;28;19913;-77
2024/01/29 12:01:54;;;;;;;;;;;;;;;-144.99;100.00;67352.69;5052981;28;19917;-78
2024/01/29 12:04:19;;;;;;;;;;;;;;;-144.99;100.00;67352.69;5051100;28;19923;-78
2024/01/29 12:06:45;;;;;;;;;;;;;;;-144.99;100.00;67352.69;5053186;28;19982;-78
2024/01/29 12:09:10;;;;;;;;;;;;;;;-144.99;100.00;67352.69;5052923;28;19924;-78